Time;durP1;ratioP1;P1;durP2;ratioP2;P2;SDS_P1;SDS_P2;PMS_P1;PMS_P2;Temp;Humidity;BMP_temperature;BMP_pressure;BME280_temperature;BME280_humidity;BME280_pressure;Samples;Min_cycle;Max_cycle;Signal;HPM_P1;HPM_P2
2022/04/09 00:00:11;;;;;;;;;;;;;;;-144.19;100.00;76654.03;5070420;28;19947;-88
2022/04/09 00:02:43;;;;;;;;;;;;;;;-144.19;100.00;76638.28;5071438;28;19971;-86
2022/04/09 00:05:16;;;;;;;;;;;;;;;-144.19;100.00;76646.16;5070265;28;19955;-88
2022/04/09 00:07:43;;;;;;;;;;;;;;;-144.19;100.00;76642.22;5054401;28;19948;-87
2022/04/09 00:10:11;;;;;;;;;;;;;;;-144.19;100.00;76665.84;5054702;28;19951;-88
2022/04/09 00:12:39;;;;;;;;;;;;;;;-144.19;100.00;76665.84;5052226;28;19947;-87
2022/04/09 00:15:06;;;;;;;;;;;;;;;-144.19;100.00;76685.53;5070182;28;19936;-88
2022/04/09 00:17:40;;;;;;;;;;;;;;;-144.19;100.00;76687.47;5052324;28;19932;-88
2022/04/09 00:20:08;;;;;;;;;;;;;;;-144.19;100.00;76693.38;5052644;28;20059;-87
2022/04/09 00:22:38;;;;;;;;;;;;;;;-144.19;100.00;76705.19;5052339;28;19929;-88
2022/04/09 00:25:23;;;;;;;;;;;;;;;-144.19;100.00;76709.13;5068816;28;19936;-88
2022/04/09 00:27:53;;;;;;;;;;;;;;;-144.19;100.00;76713.06;5053868;28;19980;-88
2022/04/09 00:30:23;;;;;;;;;;;;;;;-144.19;100.00;76705.19;5054097;28;19932;-89
2022/04/09 00:32:50;;;;;;;;;;;;;;;-144.19;100.00;76703.22;5052070;28;19924;-88
2022/04/09 00:35:17;;;;;;;;;;;;;;;-144.19;100.00;76720.94;5051093;28;19925;-87
2022/04/09 00:37:45;;;;;;;;;;;;;;;-144.19;100.00;76703.22;5069624;28;19925;-88
2022/04/09 00:40:14;;;;;;;;;;;;;;;-144.19;100.00;76709.13;5095413;22;19929;-90
2022/04/09 00:42:41;;;;;;;;;;;;;;;-144.19;100.00;76711.09;5036358;28;19935;-91
2022/04/09 00:45:08;;;;;;;;;;;;;;;-144.19;100.00;76744.56;5036572;28;19931;-90
2022/04/09 00:47:35;;;;;;;;;;;;;;;-144.19;100.00;76740.63;5037574;28;19975;-89
2022/04/09 00:50:05;;;;;;;;;;;;;;;-144.19;100.00;76756.38;5037908;28;19924;-88
2022/04/09 00:52:38;;;;;;;;;;;;;;;-144.19;100.00;76738.66;5055440;28;19925;-86
2022/04/09 00:55:06;;;;;;;;;;;;;;;-144.19;100.00;76728.81;5037964;28;19925;-87
2022/04/09 00:57:33;;;;;;;;;;;;;;;-144.19;100.00;76732.75;5037733;28;19931;-86
2022/04/09 01:00:01;;;;;;;;;;;;;;;-144.19;100.00;76744.56;5054363;28;19991;-87
2022/04/09 01:02:27;;;;;;;;;;;;;;;-144.19;100.00;76738.66;5036820;28;19930;-89
2022/04/09 01:04:54;;;;;;;;;;;;;;;-144.19;100.00;76756.38;5041822;28;19924;-91
2022/04/09 01:07:21;;;;;;;;;;;;;;;-144.19;100.00;76748.50;5060917;28;19929;-88
2022/04/09 01:09:47;;;;;;;;;;;;;;;-144.19;100.00;76746.53;5041798;28;19931;-87
2022/04/09 01:12:15;;;;;;;;;;;;;;;-144.19;100.00;76764.25;5040690;28;20374;-90
2022/04/09 01:14:41;;;;;;;;;;;;;;;-144.19;100.00;76778.03;5040510;28;20007;-87
2022/04/09 01:17:08;;;;;;;;;;;;;;;-144.19;100.00;76776.06;5040986;28;20379;-88
2022/04/09 01:19:35;;;;;;;;;;;;;;;-144.19;100.00;76787.88;5041660;28;19986;-88
2022/04/09 01:22:01;;;;;;;;;;;;;;;-144.19;100.00;76787.88;5040480;28;20294;-89
2022/04/09 01:24:28;;;;;;;;;;;;;;;-144.19;100.00;76787.88;5041960;28;20430;-87
2022/04/09 01:26:54;;;;;;;;;;;;;;;-144.19;100.00;76783.94;5058467;28;20020;-86
2022/04/09 01:29:20;;;;;;;;;;;;;;;-144.19;100.00;76776.06;5040038;28;19928;-89
2022/04/09 01:31:47;;;;;;;;;;;;;;;-144.19;100.00;76778.03;5040895;28;19925;-88
2022/04/09 01:34:19;;;;;;;;;;;;;;;-144.19;100.00;76787.88;5042134;28;20028;-88
2022/04/09 01:36:46;;;;;;;;;;;;;;;-144.19;100.00;76783.94;5040368;28;19925;-87
2022/04/09 01:39:15;;;;;;;;;;;;;;;-144.19;100.00;76783.94;5039836;28;19925;-88
2022/04/09 01:41:41;;;;;;;;;;;;;;;-144.19;100.00;76768.19;5040007;28;19932;-89
2022/04/09 01:44:07;;;;;;;;;;;;;;;-144.19;100.00;76776.06;5038511;28;20091;-88
2022/04/09 01:46:34;;;;;;;;;;;;;;;-144.19;100.00;76778.03;5041208;28;19925;-88
2022/04/09 01:49:00;;;;;;;;;;;;;;;-144.19;100.00;76783.94;5040007;28;19955;-88
2022/04/09 01:51:27;;;;;;;;;;;;;;;-144.19;100.00;76770.16;5040469;28;19925;-89
2022/04/09 01:53:53;;;;;;;;;;;;;;;-144.19;100.00;76778.03;5057972;28;19925;-88
2022/04/09 01:56:19;;;;;;;;;;;;;;;-144.19;100.00;76791.81;5040169;28;19925;-87
2022/04/09 01:58:46;;;;;;;;;;;;;;;-144.19;100.00;76803.63;5039383;28;19964;-90
2022/04/09 02:01:16;;;;;;;;;;;;;;;-144.19;100.00;76787.88;5039440;28;19999;-89
2022/04/09 02:03:42;;;;;;;;;;;;;;;-144.19;100.00;76791.81;5057857;28;19925;-90
2022/04/09 02:06:08;;;;;;;;;;;;;;;-144.19;100.00;76795.75;5041469;28;20276;-89
2022/04/09 02:08:36;;;;;;;;;;;;;;;-144.19;100.00;76797.72;5041155;28;20429;-88
2022/04/09 02:11:03;;;;;;;;;;;;;;;-144.19;100.00;76803.63;5040914;28;20297;-88
2022/04/09 02:13:29;;;;;;;;;;;;;;;-144.19;100.00;76807.56;5039447;28;19960;-88
2022/04/09 02:15:55;;;;;;;;;;;;;;;-144.19;100.00;76805.59;5040107;28;20281;-89
2022/04/09 02:18:22;;;;;;;;;;;;;;;-144.19;100.00;76780.00;5039665;28;19987;-89
2022/04/09 02:20:50;;;;;;;;;;;;;;;-144.19;100.00;76795.75;5038539;28;20349;-90
2022/04/09 02:23:17;;;;;;;;;;;;;;;-144.19;100.00;76803.63;5038080;28;20318;-89
2022/04/09 02:25:43;;;;;;;;;;;;;;;-144.19;100.00;76811.50;5039141;28;19925;-89
2022/04/09 02:28:09;;;;;;;;;;;;;;;-144.19;100.00;76819.38;5039279;28;19943;-88
2022/04/09 02:30:36;;;;;;;;;;;;;;;-144.19;100.00;76829.22;5039287;28;20030;-89
2022/04/09 02:33:02;;;;;;;;;;;;;;;-144.19;100.00;76825.28;5056438;28;19925;-88
2022/04/09 02:35:29;;;;;;;;;;;;;;;-144.19;100.00;76846.94;5040413;28;20319;-90
2022/04/09 02:37:56;;;;;;;;;;;;;;;-144.19;100.00;76819.38;5058614;28;19931;-89
2022/04/09 02:40:23;;;;;;;;;;;;;;;-144.19;100.00;76827.25;5058143;28;20012;-87
2022/04/09 02:42:50;;;;;;;;;;;;;;;-144.19;100.00;76852.84;5056329;28;19925;-86
2022/04/09 02:45:16;;;;;;;;;;;;;;;-144.19;100.00;76846.94;5039506;28;19925;-88
2022/04/09 02:47:43;;;;;;;;;;;;;;;-144.19;100.00;76839.06;5041300;28;19931;-88
2022/04/09 02:50:12;;;;;;;;;;;;;;;-144.19;100.00;76839.06;5040789;28;19997;-88
2022/04/09 02:52:40;;;;;;;;;;;;;;;-144.19;100.00;76854.81;5039762;28;19924;-90
2022/04/09 02:55:07;;;;;;;;;;;;;;;-144.19;100.00;76846.94;5039655;28;19978;-90
2022/04/09 02:57:34;;;;;;;;;;;;;;;-144.19;100.00;76858.75;5041565;28;19947;-89
2022/04/09 03:00:01;;;;;;;;;;;;;;;-144.19;100.00;76872.53;5039612;28;19924;-90
2022/04/09 03:02:27;;;;;;;;;;;;;;;-144.19;100.00;76874.50;5056433;28;19996;-90
2022/04/09 03:04:54;;;;;;;;;;;;;;;-144.19;100.00;76886.31;5041475;28;19925;-90
2022/04/09 03:07:21;;;;;;;;;;;;;;;-144.19;100.00;76888.28;5042503;28;20350;-88
2022/04/09 03:09:48;;;;;;;;;;;;;;;-144.19;100.00;76862.69;5039540;28;19931;-87
2022/04/09 03:12:14;;;;;;;;;;;;;;;-144.19;100.00;76856.78;5056789;28;20417;-89
2022/04/09 03:14:43;;;;;;;;;;;;;;;-144.19;100.00;76878.44;5038894;28;20023;-88
2022/04/09 03:17:10;;;;;;;;;;;;;;;-144.19;100.00;76870.56;5041337;28;19924;-87
2022/04/09 03:19:36;;;;;;;;;;;;;;;-144.19;100.00;76852.84;5038883;28;19925;-89
2022/04/09 03:22:03;;;;;;;;;;;;;;;-144.19;100.00;76841.03;5037697;28;19925;-87
2022/04/09 03:24:29;;;;;;;;;;;;;;;-144.19;100.00;76870.56;5039934;28;19925;-87
2022/04/09 03:26:55;;;;;;;;;;;;;;;-144.19;100.00;76874.50;5038085;28;19924;-91
2022/04/09 03:29:22;;;;;;;;;;;;;;;-144.19;100.00;76870.56;5038271;28;19933;-87
2022/04/09 03:31:48;;;;;;;;;;;;;;;-144.19;100.00;76890.25;5038266;28;19975;-90
2022/04/09 03:34:15;;;;;;;;;;;;;;;-144.19;100.00;76911.91;5037652;28;19928;-87
2022/04/09 03:36:44;;;;;;;;;;;;;;;-144.19;100.00;76909.94;5036750;28;19928;-89
2022/04/09 03:39:14;;;;;;;;;;;;;;;-144.19;100.00;76917.81;5038900;28;19932;-87
2022/04/09 03:41:41;;;;;;;;;;;;;;;-144.19;100.00;76911.91;5038854;28;19925;-88
2022/04/09 03:44:07;;;;;;;;;;;;;;;-144.19;100.00;76909.94;5038521;28;19925;-88
2022/04/09 03:46:34;;;;;;;;;;;;;;;-144.19;100.00;76909.94;5038553;28;19937;-89
2022/04/09 03:49:00;;;;;;;;;;;;;;;-144.19;100.00;76947.34;5055470;28;19924;-89
2022/04/09 03:51:27;;;;;;;;;;;;;;;-144.19;100.00;76937.50;5039122;28;20031;-89
2022/04/09 03:53:53;;;;;;;;;;;;;;;-144.19;100.00;76949.31;5037245;28;20330;-87
2022/04/09 03:56:20;;;;;;;;;;;;;;;-144.19;100.00;76953.25;5038770;28;19975;-89
2022/04/09 03:58:48;;;;;;;;;;;;;;;-144.19;100.00;76951.28;5037775;28;19987;-88
2022/04/09 04:01:16;;;;;;;;;;;;;;;-144.19;100.00;76955.22;5039745;28;19932;-88
2022/04/09 04:03:43;;;;;;;;;;;;;;;-144.19;100.00;76965.06;5039559;28;19925;-89
2022/04/09 04:06:09;;;;;;;;;;;;;;;-144.19;100.00;76970.97;5039911;28;19931;-87
2022/04/09 04:08:42;;;;;;;;;;;;;;;-144.19;100.00;76968.97;5038793;28;20383;-90
2022/04/09 04:11:08;;;;;;;;;;;;;;;-144.19;100.00;76967.00;5039283;28;20020;-89
2022/04/09 04:13:38;;;;;;;;;;;;;;;-144.19;100.00;76984.72;5040136;28;20406;-89
2022/04/09 04:16:05;;;;;;;;;;;;;;;-144.19;100.00;76992.59;5038804;28;19925;-91
2022/04/09 04:18:33;;;;;;;;;;;;;;;-144.19;100.00;76957.19;5038913;28;20023;-90
2022/04/09 04:21:00;;;;;;;;;;;;;;;-144.19;100.00;76970.97;5043772;28;19925;-87
2022/04/09 04:23:26;;;;;;;;;;;;;;;-144.19;100.00;76968.97;5042760;28;19924;-84
2022/04/09 04:25:53;;;;;;;;;;;;;;;-144.19;100.00;76972.94;5063093;28;19925;-86
2022/04/09 04:28:19;;;;;;;;;;;;;;;-144.19;100.00;76982.75;5040695;28;19925;-90
2022/04/09 04:30:45;;;;;;;;;;;;;;;-144.19;100.00;76978.81;5038827;28;19991;-88
2022/04/09 04:33:12;;;;;;;;;;;;;;;-144.19;100.00;76980.78;5037638;28;20621;-85
2022/04/09 04:35:38;;;;;;;;;;;;;;;-144.19;100.00;76984.72;5039718;28;19932;-89
2022/04/09 04:38:05;;;;;;;;;;;;;;;-144.19;100.00;76980.78;5040089;28;19932;-85
2022/04/09 04:40:31;;;;;;;;;;;;;;;-144.19;100.00;76988.66;5060215;28;20471;-89
2022/04/09 04:42:57;;;;;;;;;;;;;;;-144.19;100.00;76988.66;5043301;28;19948;-88
2022/04/09 04:45:24;;;;;;;;;;;;;;;-144.19;100.00;76986.69;5041390;28;20310;-88
2022/04/09 04:47:50;;;;;;;;;;;;;;;-144.19;100.00;77004.41;5042567;28;19925;-87
2022/04/09 04:50:17;;;;;;;;;;;;;;;-144.19;100.00;77000.47;5040342;28;19925;-88
2022/04/09 04:52:44;;;;;;;;;;;;;;;-144.19;100.00;77020.16;5041330;28;19931;-87
2022/04/09 04:55:14;;;;;;;;;;;;;;;-144.19;100.00;77016.22;5042909;28;20401;-88
2022/04/09 04:57:48;;;;;;;;;;;;;;;-144.19;100.00;77010.31;5041827;28;19932;-87
2022/04/09 05:00:21;;;;;;;;;;;;;;;-144.19;100.00;77012.28;5046196;28;19928;-85
2022/04/09 05:02:48;;;;;;;;;;;;;;;-144.19;100.00;77016.22;5044791;28;19960;-86
2022/04/09 05:05:15;;;;;;;;;;;;;;;-144.19;100.00;77010.31;5042710;28;19991;-87
2022/04/09 05:07:41;;;;;;;;;;;;;;;-144.19;100.00;77016.22;5057567;28;20032;-88
2022/04/09 05:10:09;;;;;;;;;;;;;;;-144.19;100.00;77022.13;5038597;28;19925;-89
2022/04/09 05:12:36;;;;;;;;;;;;;;;-144.19;100.00;77043.78;5043067;28;19925;-90
2022/04/09 05:15:04;;;;;;;;;;;;;;;-144.19;100.00;77020.16;5043230;28;19925;-85
2022/04/09 05:17:34;;;;;;;;;;;;;;;-144.19;100.00;77026.06;5061661;28;20413;-89
2022/04/09 05:20:03;;;;;;;;;;;;;;;-144.19;100.00;77024.09;5042319;28;19978;-85
2022/04/09 05:22:30;;;;;;;;;;;;;;;-144.19;100.00;77018.19;5058065;28;19993;-88
2022/04/09 05:24:56;;;;;;;;;;;;;;;-144.19;100.00;77041.81;5040153;28;20374;-89
2022/04/09 05:27:23;;;;;;;;;;;;;;;-144.19;100.00;77012.28;5041471;28;19932;-87
2022/04/09 05:29:50;;;;;;;;;;;;;;;-144.19;100.00;76992.59;5040407;28;19925;-87
2022/04/09 05:32:17;;;;;;;;;;;;;;;-144.19;100.00;77000.47;5040331;28;19925;-88
2022/04/09 05:34:43;;;;;;;;;;;;;;;-144.19;100.00;77010.31;5032684;28;19931;-88
2022/04/09 05:37:09;;;;;;;;;;;;;;;-144.19;100.00;77000.47;5039183;28;19925;-88
2022/04/09 05:39:36;;;;;;;;;;;;;;;-144.19;100.00;77004.41;5039234;28;20298;-89
2022/04/09 05:42:02;;;;;;;;;;;;;;;-144.19;100.00;77008.34;5021685;28;19933;-89
2022/04/09 05:44:29;;;;;;;;;;;;;;;-144.19;100.00;77000.47;5039554;28;19931;-88
2022/04/09 05:46:55;;;;;;;;;;;;;;;-144.19;100.00;77004.41;5039069;28;19947;-88
2022/04/09 05:49:21;;;;;;;;;;;;;;;-144.19;100.00;77012.28;5037538;28;19958;-89
2022/04/09 05:51:48;;;;;;;;;;;;;;;-144.19;100.00;77016.22;5038859;28;19924;-88
2022/04/09 05:54:15;;;;;;;;;;;;;;;-144.19;100.00;77008.34;5038278;28;19925;-87
2022/04/09 05:56:41;;;;;;;;;;;;;;;-144.19;100.00;77004.41;5039501;28;19924;-88
2022/04/09 05:59:12;;;;;;;;;;;;;;;-144.19;100.00;77000.47;5039562;28;20361;-90
2022/04/09 06:01:46;;;;;;;;;;;;;;;-144.19;100.00;77004.41;5040393;28;19979;-89
2022/04/09 06:04:14;;;;;;;;;;;;;;;-144.19;100.00;77012.28;5038380;28;20391;-88
2022/04/09 06:06:40;;;;;;;;;;;;;;;-144.19;100.00;76992.59;5057534;28;19986;-90
2022/04/09 06:09:07;;;;;;;;;;;;;;;-144.19;100.00;76986.69;5038214;28;19925;-88
2022/04/09 06:11:33;;;;;;;;;;;;;;;-144.19;100.00;76980.78;5040045;28;19931;-86
2022/04/09 06:13:59;;;;;;;;;;;;;;;-144.19;100.00;76988.66;5037903;28;20014;-89
2022/04/09 06:16:25;;;;;;;;;;;;;;;-144.19;100.00;76972.94;5057203;28;20107;-90
2022/04/09 06:18:52;;;;;;;;;;;;;;;-144.19;100.00;76968.97;5038067;28;19950;-88
2022/04/09 06:21:18;;;;;;;;;;;;;;;-144.19;100.00;76968.97;5037036;28;19932;-89
2022/04/09 06:23:45;;;;;;;;;;;;;;;-144.19;100.00;76957.19;5037000;28;20070;-89
2022/04/09 06:26:11;;;;;;;;;;;;;;;-144.19;100.00;76970.97;5039032;28;20533;-91
2022/04/09 06:28:40;;;;;;;;;;;;;;;-144.19;100.00;76941.44;5039138;28;19951;-88
2022/04/09 06:31:07;;;;;;;;;;;;;;;-144.19;100.00;76957.19;5037609;28;19971;-89
2022/04/09 06:33:33;;;;;;;;;;;;;;;-144.19;100.00;76949.31;5037869;28;20453;-89
2022/04/09 06:36:00;;;;;;;;;;;;;;;-144.19;100.00;76953.25;5038348;28;20002;-87
2022/04/09 06:38:27;;;;;;;;;;;;;;;-144.19;100.00;76953.25;5038422;28;20290;-89
2022/04/09 06:40:54;;;;;;;;;;;;;;;-144.19;100.00;76923.72;5040973;23;20388;-91
2022/04/09 06:43:20;;;;;;;;;;;;;;;-144.19;100.00;76913.88;5013570;28;19958;-93
2022/04/09 06:45:46;;;;;;;;;;;;;;;-144.19;100.00;76917.81;5014836;28;19925;-90
2022/04/09 06:48:13;;;;;;;;;;;;;;;-144.19;100.00;76909.94;5016215;28;20016;-91
2022/04/09 06:50:39;;;;;;;;;;;;;;;-144.19;100.00;76880.41;5016716;28;19930;-89
2022/04/09 06:53:05;;;;;;;;;;;;;;;-144.19;100.00;76880.41;5003505;28;20001;-90
2022/04/09 06:55:32;;;;;;;;;;;;;;;-144.19;100.00;76872.53;5031496;28;19933;-88
2022/04/09 06:58:01;;;;;;;;;;;;;;;-144.19;100.00;76870.56;5017567;28;19952;-87
2022/04/09 07:00:34;;;;;;;;;;;;;;;-144.19;100.00;76876.47;5031696;28;20015;-85
2022/04/09 07:03:01;;;;;;;;;;;;;;;-144.19;100.00;76925.69;5031348;28;19972;-89
2022/04/09 07:05:27;;;;;;;;;;;;;;;-144.19;100.00;76917.81;5017865;28;19929;-89
2022/04/09 07:07:53;;;;;;;;;;;;;;;-144.19;100.00;76947.34;5015083;28;19949;-87
2022/04/09 07:10:20;;;;;;;;;;;;;;;-144.19;100.00;76921.75;5014175;28;19929;-90
2022/04/09 07:12:46;;;;;;;;;;;;;;;-144.19;100.00;76909.94;5029485;28;19926;-85
2022/04/09 07:15:28;;;;;;;;;;;;;;;-144.19;100.00;76925.69;5030361;28;19936;-88
2022/04/09 07:18:16;;;;;;;;;;;;;;;-144.19;100.00;76902.06;4958079;29;19927;-88
2022/04/09 07:20:47;;;;;;;;;;;;;;;-144.19;100.00;76882.38;4970383;29;19950;-86
2022/04/09 07:23:39;;;;;;;;;;;;;;;-144.19;100.00;76870.56;4957839;29;20094;-90
2022/04/09 07:26:14;;;;;;;;;;;;;;;-144.19;100.00;76862.69;4972413;29;19933;-89
2022/04/09 07:28:43;;;;;;;;;;;;;;;-144.19;100.00;76862.69;4972755;29;19934;-89
2022/04/09 07:31:13;;;;;;;;;;;;;;;-144.19;100.00;76866.63;4972014;29;19926;-90
2022/04/09 07:34:13;;;;;;;;;;;;;;;-144.19;100.00;76890.25;4971772;29;19927;-92
2022/04/09 07:36:52;;;;;;;;;;;;;;;-144.19;100.00;76866.63;4945275;29;19930;-90
2022/04/09 07:39:52;;;;;;;;;;;;;;;-144.19;100.00;76860.72;4941750;29;19974;-90
2022/04/09 07:42:30;;;;;;;;;;;;;;;-144.19;100.00;76858.75;4952463;29;20395;-92
2022/04/09 07:45:16;;;;;;;;;;;;;;;-144.19;100.00;76825.28;4969810;29;19926;-93
2022/04/09 07:48:33;;;;;;;;;;;;;;;-144.19;100.00;76805.59;4948872;29;19949;-87
2022/04/09 07:55:15;;;;;;;;;;;;;;;;;;;;;
2022/04/09 08:01:32;;;;;;;;;;;;;;;-144.19;100.00;76809.53;4991578;28;19989;-92
2022/04/09 08:04:16;;;;;;;;;;;;;;;-144.19;100.00;76791.81;4991232;28;19961;-91
2022/04/09 08:06:57;;;;;;;;;;;;;;;-144.19;100.00;76793.78;4989967;28;19986;-94
2022/04/09 08:09:26;;;;;;;;;;;;;;;-144.19;100.00;76801.66;5027398;28;19925;-88
2022/04/09 08:11:57;;;;;;;;;;;;;;;-144.19;100.00;76821.34;5027860;28;19914;-91
2022/04/09 08:14:32;;;;;;;;;;;;;;;-144.19;100.00;76825.28;5028762;28;19926;-88
2022/04/09 08:17:03;;;;;;;;;;;;;;;-144.19;100.00;76819.38;5028279;28;20180;-90
2022/04/09 08:19:37;;;;;;;;;;;;;;;-144.19;100.00;76841.03;5027046;28;19926;-91
2022/04/09 08:22:32;;;;;;;;;;;;;;;-144.19;100.00;76813.47;5027875;28;20013;-90
2022/04/09 08:25:12;;;;;;;;;;;;;;;-144.19;100.00;76819.38;5027781;28;20186;-89
2022/04/09 08:27:44;;;;;;;;;;;;;;;-144.19;100.00;76831.19;5027348;28;19952;-93
2022/04/09 08:30:33;;;;;;;;;;;;;;;-144.19;100.00;76819.38;5029028;28;19932;-90
2022/04/09 08:33:15;;;;;;;;;;;;;;;-144.19;100.00;76835.13;5022438;28;19929;-91
2022/04/09 08:35:50;;;;;;;;;;;;;;;-144.19;100.00;76827.25;5011956;28;19952;-90
2022/04/09 08:38:16;;;;;;;;;;;;;;;-144.19;100.00;76835.13;5013391;28;19940;-93
2022/04/09 08:40:43;;;;;;;;;;;;;;;-144.19;100.00;76843.00;5014557;28;19925;-90
2022/04/09 08:43:13;;;;;;;;;;;;;;;-144.19;100.00;76807.56;5011138;28;19989;-91
2022/04/09 08:45:42;;;;;;;;;;;;;;;-144.19;100.00;76811.50;5012007;28;20299;-91
2022/04/09 08:48:09;;;;;;;;;;;;;;;-144.19;100.00;76776.06;5010767;28;20032;-91
2022/04/09 08:50:36;;;;;;;;;;;;;;;-144.19;100.00;76778.03;5010595;28;19932;-89
2022/04/09 08:53:06;;;;;;;;;;;;;;;-144.19;100.00;76772.13;5026470;28;19925;-88
2022/04/09 08:55:36;;;;;;;;;;;;;;;-144.19;100.00;76760.31;5011760;28;19952;-88
2022/04/09 08:58:03;;;;;;;;;;;;;;;-144.19;100.00;76768.19;5013714;28;19933;-90
2022/04/09 09:00:30;;;;;;;;;;;;;;;-144.19;100.00;76807.56;5010465;28;20403;-89
2022/04/09 09:02:59;;;;;;;;;;;;;;;-144.19;100.00;76783.94;5009507;28;19925;-89
2022/04/09 09:05:30;;;;;;;;;;;;;;;-144.19;100.00;76781.97;5009755;28;20023;-91
2022/04/09 09:07:57;;;;;;;;;;;;;;;-144.19;100.00;76807.56;5011099;28;19925;-89
2022/04/09 09:10:23;;;;;;;;;;;;;;;-144.19;100.00;76791.81;5008281;28;19936;-89
2022/04/09 09:12:57;;;;;;;;;;;;;;;-144.19;100.00;76756.38;5009112;28;19926;-89
2022/04/09 09:15:23;;;;;;;;;;;;;;;-144.19;100.00;76746.53;5006699;28;20302;-90
2022/04/09 09:17:54;;;;;;;;;;;;;;;-144.19;100.00;76793.78;5009607;28;19932;-89
2022/04/09 09:20:20;;;;;;;;;;;;;;;-144.19;100.00;76837.09;5008861;28;19936;-90
2022/04/09 09:22:49;;;;;;;;;;;;;;;-144.19;100.00;76850.88;5009354;28;19926;-90
2022/04/09 09:25:15;;;;;;;;;;;;;;;-144.19;100.00;76827.25;5013751;28;19925;-91
2022/04/09 09:27:41;;;;;;;;;;;;;;;-144.19;100.00;76837.09;5013594;28;19932;-89
2022/04/09 09:30:12;;;;;;;;;;;;;;;-144.19;100.00;76858.75;5013338;28;19926;-87
2022/04/09 09:32:41;;;;;;;;;;;;;;;-144.19;100.00;76878.44;5014008;28;19932;-90
2022/04/09 09:35:09;;;;;;;;;;;;;;;-144.19;100.00;76882.38;5013683;28;19984;-91
2022/04/09 09:37:37;;;;;;;;;;;;;;;-144.19;100.00;76894.19;5013438;28;20315;-89
2022/04/09 09:40:04;;;;;;;;;;;;;;;-144.19;100.00;76923.72;5012592;28;19925;-89
2022/04/09 09:42:33;;;;;;;;;;;;;;;-144.19;100.00;76862.69;5013144;28;19929;-92
2022/04/09 09:45:00;;;;;;;;;;;;;;;-144.19;100.00;76833.16;5030587;28;19925;-91
2022/04/09 09:47:29;;;;;;;;;;;;;;;-144.19;100.00;76748.50;5015217;28;20009;-93
2022/04/09 09:49:59;;;;;;;;;;;;;;;-144.19;100.00;76703.22;5014775;28;19925;-92
2022/04/09 09:52:27;;;;;;;;;;;;;;;-144.19;100.00;76667.81;5014576;28;19926;-87
2022/04/09 09:54:55;;;;;;;;;;;;;;;-144.19;100.00;76602.84;5017818;28;20016;-89
2022/04/09 09:57:22;;;;;;;;;;;;;;;-144.19;100.00;76594.97;5015189;28;19980;-88
2022/04/09 09:59:53;;;;;;;;;;;;;;;-144.19;100.00;76585.13;5015621;28;20391;-89
2022/04/09 10:02:21;;;;;;;;;;;;;;;-144.19;100.00;76543.78;5014992;28;20008;-91
2022/04/09 10:04:53;;;;;;;;;;;;;;;-144.19;100.00;76606.78;5016207;28;20016;-90
2022/04/09 10:07:20;;;;;;;;;;;;;;;-144.19;100.00;76699.28;5013678;28;19925;-92
2022/04/09 10:09:49;;;;;;;;;;;;;;;-144.19;100.00;76685.53;5014280;28;19981;-93
2022/04/09 10:12:20;;;;;;;;;;;;;;;-144.19;100.00;76630.41;5013556;28;20020;-91
2022/04/09 10:14:52;;;;;;;;;;;;;;;-144.19;100.00;76604.81;5012877;28;19925;-92
2022/04/09 10:17:21;;;;;;;;;;;;;;;-144.19;100.00;76539.84;5027289;28;19926;-89
2022/04/09 10:19:57;;;;;;;;;;;;;;;-144.19;100.00;76528.03;5013656;28;19926;-88
2022/04/09 10:22:25;;;;;;;;;;;;;;;-144.19;100.00;76524.09;5012317;28;20324;-88
2022/04/09 10:24:54;;;;;;;;;;;;;;;-144.19;100.00;76425.69;5013113;28;19929;-88
2022/04/09 10:27:40;;;;;;;;;;;;;;;-144.19;100.00;76480.81;5013412;28;19925;-91
2022/04/09 10:30:16;;;;;;;;;;;;;;;-144.19;100.00;76480.81;5012933;28;19980;-87
2022/04/09 10:32:44;;;;;;;;;;;;;;;-144.19;100.00;76492.63;5008249;28;19925;-90
2022/04/09 10:35:25;;;;;;;;;;;;;;;-144.19;100.00;76435.53;5012897;28;19948;-88
2022/04/09 10:38:07;;;;;;;;;;;;;;;-144.19;100.00;76543.78;5013450;28;20399;-88
2022/04/09 10:40:34;;;;;;;;;;;;;;;-144.19;100.00;76433.56;5013907;28;19926;-90
2022/04/09 10:43:01;;;;;;;;;;;;;;;-144.19;100.00;76362.69;5012723;28;20025;-88
2022/04/09 10:45:28;;;;;;;;;;;;;;;-144.19;96.68;76360.72;4993778;28;19930;-89
2022/04/09 10:48:05;;;;;;;;;;;;;;;-144.19;98.89;76402.06;5027616;28;19925;-90
2022/04/09 10:50:51;;;;;;;;;;;;;;;-144.19;100.00;76445.38;5018718;28;19929;-88
2022/04/09 10:53:19;;;;;;;;;;;;;;;-144.19;100.00;76504.41;4999927;28;20399;-89
2022/04/09 10:56:08;;;;;;;;;;;;;;;-144.19;100.00;76547.72;5012477;28;20012;-89
2022/04/09 10:58:54;;;;;;;;;;;;;;;-144.19;100.00;76669.78;5019894;28;19973;-87
2022/04/09 11:01:39;;;;;;;;;;;;;;;-144.19;100.00;76722.91;5011816;28;20318;-89
2022/04/09 11:04:25;;;;;;;;;;;;;;;-144.19;100.00;76738.66;5011029;28;20462;-90
2022/04/09 11:07:00;;;;;;;;;;;;;;;-144.19;100.00;76738.66;5015396;28;19976;-88
2022/04/09 11:09:39;;;;;;;;;;;;;;;-144.19;100.00;76748.50;5011440;28;19925;-90
2022/04/09 11:12:05;;;;;;;;;;;;;;;-144.19;100.00;76648.13;5025771;28;19935;-91
2022/04/09 11:14:42;;;;;;;;;;;;;;;-144.19;100.00;76551.66;5010945;28;19930;-90
2022/04/09 11:17:18;;;;;;;;;;;;;;;-144.19;100.00;76500.47;5011812;28;20411;-90
2022/04/09 11:19:45;;;;;;;;;;;;;;;-144.19;100.00;76547.72;5010433;28;19948;-92
2022/04/09 11:22:15;;;;;;;;;;;;;;;-144.19;100.00;76502.44;5027281;28;19961;-87
2022/04/09 11:24:42;;;;;;;;;;;;;;;-144.19;100.00;76437.50;5012100;28;19936;-89
2022/04/09 11:27:10;;;;;;;;;;;;;;;-144.19;100.00;76488.69;5014056;28;19932;-91
2022/04/09 11:29:38;;;;;;;;;;;;;;;-144.19;100.00;76665.84;5030117;28;20511;-91
2022/04/09 11:32:05;;;;;;;;;;;;;;;-144.19;100.00;76730.78;5010061;28;19963;-88
2022/04/09 11:34:50;;;;;;;;;;;;;;;-144.19;100.00;76831.19;5012474;28;19952;-90
2022/04/09 11:37:17;;;;;;;;;;;;;;;-144.19;100.00;76843.00;5011845;28;19925;-88
2022/04/09 11:39:44;;;;;;;;;;;;;;;-144.19;100.00;76917.81;5011270;28;19925;-93
2022/04/09 11:42:11;;;;;;;;;;;;;;;-144.19;100.00;76961.13;5011059;28;19929;-91
2022/04/09 11:44:40;;;;;;;;;;;;;;;-144.19;100.00;77004.41;5011300;28;19932;-89
2022/04/09 11:47:17;;;;;;;;;;;;;;;-144.19;100.00;76980.78;5010781;28;19937;-88
2022/04/09 11:49:45;;;;;;;;;;;;;;;-144.19;100.00;77016.22;5027436;28;19936;-88
2022/04/09 11:52:11;;;;;;;;;;;;;;;-144.19;100.00;76965.06;5012931;28;19930;-92
2022/04/09 11:54:39;;;;;;;;;;;;;;;-144.19;100.00;77012.28;5028813;28;19965;-88
2022/04/09 11:57:13;;;;;;;;;;;;;;;-144.19;100.00;77047.72;5028591;28;19925;-90
2022/04/09 11:59:49;;;;;;;;;;;;;;;-144.19;100.00;77083.16;5028264;28;19926;-89
2022/04/09 12:03:04;;;;;;;;;;;;;;;-144.19;100.00;77126.47;5026731;28;19952;-89
2022/04/09 12:05:47;;;;;;;;;;;;;;;-144.19;100.00;77157.97;5028702;28;19926;-91
2022/04/09 12:08:44;;;;;;;;;;;;;;;-144.19;100.00;77224.91;5029400;28;19925;-92
2022/04/09 12:11:17;;;;;;;;;;;;;;;-144.19;100.00;77256.41;5046868;28;19984;-91
2022/04/09 12:14:31;;;;;;;;;;;;;;;;;;;;;
2022/04/09 12:17:50;;;;;;;;;;;;;;;-144.19;100.00;77256.41;5029533;28;19928;-90
2022/04/09 12:20:37;;;;;;;;;;;;;;;-144.19;100.00;77260.34;5044857;28;19925;-91
2022/04/09 12:23:08;;;;;;;;;;;;;;;-144.19;100.00;77293.81;5027570;28;20388;-88
2022/04/09 12:25:50;;;;;;;;;;;;;;;-144.19;100.00;77264.28;5028700;28;19926;-89
2022/04/09 12:28:28;;;;;;;;;;;;;;;-144.19;100.00;77272.16;5029645;28;19925;-88
2022/04/09 12:30:56;;;;;;;;;;;;;;;-144.19;100.00;77264.28;5028683;28;19926;-91
2022/04/09 12:33:24;;;;;;;;;;;;;;;-144.19;100.00;77268.22;5021922;28;19926;-92
2022/04/09 12:35:52;;;;;;;;;;;;;;;-144.19;100.00;77313.50;5007164;28;19936;-90
2022/04/09 12:38:34;;;;;;;;;;;;;;;-144.19;100.00;77283.97;5008475;28;20336;-89
2022/04/09 12:41:04;;;;;;;;;;;;;;;-144.19;100.00;77283.97;5076843;23;19925;-83
2022/04/09 12:43:32;;;;;;;;;;;;;;;-144.19;100.00;77303.66;5049222;28;19939;-84